CheckWX is a tool to help pilots better visualize weather data.  It is not intended as a substitute for an official pre-flight weather briefing.

04:47:57 UTC

CYED METAR
Edmonton (CFB Namao) Heliport
Edmonton, Canada
Current

48 mins ago

CYED 180400Z AUTO 00000KT 9SM OVC049 OVC078 OVC087 11/09 A2972 RMK SLP077
Observed
Aug-18 @ 04:00 UTC
Visibility
9 SM
Flight Rules
VFR
Cloud Levels
  • Overcast at 4,900' AGL
  • Overcast at 7,800' AGL
  • Overcast at 8,700' AGL
Temperature
11°C / 52°F
Dewpoint
C / 48°F
Humidity
88%
Altimeter
29.72" Hg
Pressure
1006.42 hPa
Previous

2 hours ago

CYED 180300Z AUTO 00000KT 9SM OVC053 OVC097 11/09 A2972 RMK SLP077
Observed
Aug-18 @ 03:00 UTC
Visibility
9 SM
Flight Rules
VFR
Cloud Levels
  • Overcast at 5,300' AGL
  • Overcast at 9,700' AGL
Temperature
11°C / 52°F
Dewpoint
C / 48°F
Humidity
88%
Altimeter
29.72" Hg
Pressure
1006.42 hPa
Previous

2 hours ago

CYED 180245Z AUTO 00000KT 9SM OVC053 OVC097 12/08 A2972
Observed
Aug-18 @ 02:45 UTC
Visibility
9 SM
Flight Rules
VFR
Cloud Levels
  • Overcast at 5,300' AGL
  • Overcast at 9,700' AGL
Temperature
12°C / 54°F
Dewpoint
C / 46°F
Humidity
77%
Altimeter
29.72" Hg
Pressure
1006.42 hPa